createdAt,value
2023-03-10T00:00:35.922Z,0.00
2023-03-10T00:01:36.072Z,0.00
2023-03-10T00:02:36.283Z,0.00
2023-03-10T00:03:36.440Z,0.00
2023-03-10T00:04:36.661Z,0.00
2023-03-10T00:05:36.847Z,0.00
2023-03-10T00:06:36.962Z,0.00
2023-03-10T00:07:37.163Z,0.00
2023-03-10T00:08:37.327Z,0.00
2023-03-10T00:09:37.524Z,0.00
2023-03-10T00:10:37.692Z,0.00
2023-03-10T00:11:37.851Z,0.00
2023-03-10T00:12:38.052Z,0.00
2023-03-10T00:13:38.224Z,0.00
2023-03-10T00:14:38.373Z,0.00
2023-03-10T00:15:38.538Z,0.00
2023-03-10T00:16:38.702Z,0.00
2023-03-10T00:17:38.868Z,0.00
2023-03-10T00:18:39.021Z,0.00
2023-03-10T00:19:39.175Z,0.00
2023-03-10T00:20:39.391Z,0.00
2023-03-10T00:21:39.529Z,0.00
2023-03-10T00:22:39.741Z,0.00
2023-03-10T00:23:39.890Z,0.00
2023-03-10T00:24:40.085Z,0.00
2023-03-10T00:25:40.250Z,0.00
2023-03-10T00:26:40.408Z,0.00
2023-03-10T00:27:40.609Z,0.00
2023-03-10T00:28:40.778Z,0.00
2023-03-10T00:29:40.920Z,0.00
2023-03-10T00:30:41.115Z,0.00
2023-03-10T00:31:41.271Z,0.00
2023-03-10T00:32:41.530Z,0.00
2023-03-10T00:33:41.632Z,0.00
2023-03-10T00:34:41.822Z,0.00
2023-03-10T00:35:41.990Z,0.00
2023-03-10T00:36:42.173Z,0.00
2023-03-10T00:37:42.332Z,0.00
2023-03-10T00:38:42.513Z,0.00
2023-03-10T00:39:42.662Z,0.00
2023-03-10T00:40:42.834Z,0.00
2023-03-10T00:41:42.995Z,0.00
2023-03-10T00:42:43.153Z,0.00
2023-03-10T00:43:43.333Z,0.00
2023-03-10T00:44:43.492Z,0.00
2023-03-10T00:45:43.675Z,0.00
2023-03-10T00:46:43.895Z,0.00
2023-03-10T00:47:44.038Z,0.00
2023-03-10T00:48:44.211Z,0.00
2023-03-10T00:49:44.361Z,0.00
2023-03-10T00:50:44.582Z,0.00
2023-03-10T00:51:44.706Z,0.00
2023-03-10T00:52:44.905Z,0.00
2023-03-10T00:53:45.080Z,0.00
2023-03-10T00:54:45.222Z,0.00
2023-03-10T00:55:45.394Z,0.00
2023-03-10T00:56:45.579Z,0.00
2023-03-10T00:57:45.751Z,0.00
2023-03-10T00:58:45.912Z,0.00
2023-03-10T00:59:50.470Z,0.00
2023-03-10T01:00:46.280Z,0.00
2023-03-10T01:01:46.538Z,0.00
2023-03-10T01:02:46.645Z,0.00
2023-03-10T01:03:46.795Z,0.00
2023-03-10T01:04:47.027Z,0.00
2023-03-10T01:05:47.176Z,0.00
2023-03-10T01:06:47.370Z,0.00
2023-03-10T01:07:47.571Z,0.00
2023-03-10T01:08:47.691Z,0.00
2023-03-10T01:09:47.883Z,0.00
2023-03-10T01:10:48.058Z,0.00
2023-03-10T01:11:48.200Z,0.00
2023-03-10T01:12:48.420Z,0.00
2023-03-10T01:13:48.576Z,0.00
2023-03-10T01:14:48.740Z,0.00
2023-03-10T01:15:48.951Z,0.00
2023-03-10T01:16:49.089Z,0.00
2023-03-10T01:17:49.259Z,0.00
2023-03-10T01:18:49.429Z,0.00
2023-03-10T01:19:49.571Z,0.00
2023-03-10T01:20:49.768Z,0.00
2023-03-10T01:21:49.920Z,0.00
2023-03-10T01:22:50.157Z,0.00
2023-03-10T01:23:50.280Z,0.00
2023-03-10T01:24:50.467Z,0.00
2023-03-10T01:25:50.645Z,0.00
2023-03-10T01:26:50.790Z,0.00
2023-03-10T01:27:50.990Z,0.00
2023-03-10T01:28:51.170Z,0.00
2023-03-10T01:29:51.301Z,0.00
2023-03-10T01:30:51.487Z,0.00
2023-03-10T01:31:51.682Z,0.00
2023-03-10T01:32:52.045Z,0.00
2023-03-10T01:33:52.070Z,0.00
2023-03-10T01:34:52.224Z,0.00
2023-03-10T01:35:52.427Z,0.00
2023-03-10T01:36:52.568Z,0.00
2023-03-10T01:37:52.765Z,0.00
2023-03-10T01:38:52.927Z,0.00
2023-03-10T01:39:53.085Z,0.00
2023-03-10T01:40:53.285Z,0.00
2023-03-10T01:41:53.431Z,0.00
2023-03-10T01:42:53.613Z,0.00
2023-03-10T01:43:53.781Z,0.00
2023-03-10T01:44:53.940Z,0.00
2023-03-10T01:45:54.105Z,0.00
2023-03-10T01:46:54.356Z,0.00
2023-03-10T01:47:54.482Z,0.00
2023-03-10T01:48:54.643Z,0.00
2023-03-10T01:49:54.828Z,0.00
2023-03-10T01:50:55.023Z,0.00
2023-03-10T01:51:55.204Z,0.00
2023-03-10T01:52:55.412Z,0.00
2023-03-10T01:53:55.603Z,0.00
2023-03-10T01:54:55.789Z,0.00
2023-03-10T01:55:55.910Z,0.00
2023-03-10T01:56:56.102Z,0.00
2023-03-10T01:57:56.281Z,0.00
2023-03-10T01:58:56.489Z,0.00
2023-03-10T01:59:56.648Z,0.00
2023-03-10T02:00:56.903Z,0.00
2023-03-10T02:01:57.094Z,0.00
2023-03-10T02:02:57.176Z,0.00
2023-03-10T02:03:57.350Z,0.00
2023-03-10T02:04:57.512Z,0.00
2023-03-10T02:05:57.689Z,0.00
2023-03-10T02:06:57.888Z,0.00
2023-03-10T02:07:58.024Z,0.00
2023-03-10T02:08:58.243Z,0.00
2023-03-10T02:09:58.386Z,0.00
2023-03-10T02:10:58.574Z,0.00
2023-03-10T02:11:58.726Z,0.00
2023-03-10T02:12:58.919Z,0.00
2023-03-10T02:13:59.108Z,0.00
2023-03-10T02:14:59.273Z,0.00
2023-03-10T02:15:59.485Z,0.00
2023-03-10T02:16:59.610Z,0.00
2023-03-10T02:17:59.821Z,0.00
2023-03-10T02:18:59.971Z,0.00
2023-03-10T02:20:00.169Z,0.00
2023-03-10T02:21:00.310Z,0.00
2023-03-10T02:22:00.499Z,0.00
2023-03-10T02:23:00.711Z,0.00
2023-03-10T02:24:01.836Z,0.00
2023-03-10T02:25:01.051Z,0.00
2023-03-10T02:26:01.208Z,0.00
2023-03-10T02:27:01.364Z,0.00
2023-03-10T02:28:01.554Z,0.00
2023-03-10T02:29:01.748Z,0.00
2023-03-10T02:30:01.940Z,0.00
2023-03-10T02:31:02.098Z,0.00
2023-03-10T02:32:02.310Z,0.00
2023-03-10T02:33:02.422Z,0.00
2023-03-10T02:34:02.621Z,0.00
2023-03-10T02:35:02.778Z,0.00
2023-03-10T02:36:03.017Z,0.00
2023-03-10T02:37:03.101Z,0.00
2023-03-10T02:38:03.280Z,0.00
2023-03-10T02:39:03.478Z,0.00
2023-03-10T02:40:03.635Z,0.00
2023-03-10T02:41:03.839Z,0.00
2023-03-10T02:42:04.016Z,0.00
2023-03-10T02:43:04.170Z,0.00
2023-03-10T02:44:04.359Z,0.00
2023-03-10T02:45:04.499Z,0.00
2023-03-10T02:46:04.699Z,0.00
2023-03-10T02:47:04.831Z,0.00
2023-03-10T02:48:05.006Z,0.00
2023-03-10T02:49:05.217Z,0.00
2023-03-10T02:50:05.344Z,0.00
2023-03-10T02:51:05.515Z,0.00
2023-03-10T02:52:05.698Z,0.00
2023-03-10T02:53:05.877Z,0.00
2023-03-10T02:54:06.055Z,0.00
2023-03-10T02:55:06.233Z,0.00
2023-03-10T02:56:06.426Z,0.00
2023-03-10T02:57:06.620Z,0.00
2023-03-10T02:58:06.788Z,0.00
2023-03-10T02:59:06.974Z,0.00
2023-03-10T03:00:07.132Z,0.00
2023-03-10T03:01:07.456Z,0.00
2023-03-10T03:02:07.472Z,0.00
2023-03-10T03:03:07.648Z,0.00
2023-03-10T03:04:07.901Z,0.00
2023-03-10T03:05:07.992Z,0.00
2023-03-10T03:06:08.177Z,0.00
2023-03-10T03:07:08.344Z,0.00
2023-03-10T03:08:08.531Z,0.00
2023-03-10T03:09:08.723Z,0.00
2023-03-10T03:10:08.861Z,0.00
2023-03-10T03:11:09.040Z,0.00
2023-03-10T03:12:09.213Z,0.00
2023-03-10T03:13:09.384Z,0.00
2023-03-10T03:14:09.580Z,0.00
2023-03-10T03:15:09.740Z,0.00
2023-03-10T03:16:10.014Z,0.00
2023-03-10T03:17:10.092Z,0.00
2023-03-10T03:18:10.272Z,0.00
2023-03-10T03:19:10.462Z,0.00
2023-03-10T03:20:10.643Z,0.00
2023-03-10T03:21:10.815Z,0.00
2023-03-10T03:22:10.989Z,0.00
2023-03-10T03:23:11.158Z,0.00
2023-03-10T03:24:11.354Z,0.00
2023-03-10T03:25:11.492Z,0.00
2023-03-10T03:26:11.679Z,0.00
2023-03-10T03:27:11.855Z,0.00
2023-03-10T03:28:12.036Z,0.00
2023-03-10T03:29:12.217Z,0.00
2023-03-10T03:30:12.410Z,0.00
2023-03-10T03:31:12.566Z,0.00
2023-03-10T03:32:12.831Z,0.00
2023-03-10T03:33:12.907Z,0.00
2023-03-10T03:34:13.098Z,0.00
2023-03-10T03:35:13.285Z,0.00
2023-03-10T03:36:13.456Z,0.00
2023-03-10T03:37:13.614Z,0.00
2023-03-10T03:38:13.796Z,0.00
2023-03-10T03:39:13.994Z,0.00
2023-03-10T03:40:14.128Z,0.00
2023-03-10T03:41:14.361Z,0.00
2023-03-10T03:42:14.475Z,0.00
2023-03-10T03:43:14.667Z,0.00
2023-03-10T03:44:14.823Z,0.00
2023-03-10T03:45:14.967Z,0.00
2023-03-10T03:46:15.234Z,0.00
2023-03-10T03:47:15.326Z,0.00
2023-03-10T03:48:15.506Z,0.00
2023-03-10T03:49:15.694Z,0.00
2023-03-10T03:50:15.882Z,0.00
2023-03-10T03:51:16.044Z,0.00
2023-03-10T03:52:16.253Z,0.00
2023-03-10T03:53:16.377Z,0.00
2023-03-10T03:54:16.574Z,0.00
2023-03-10T03:55:16.728Z,0.00
2023-03-10T03:56:16.894Z,0.00
2023-03-10T03:57:17.066Z,0.00
2023-03-10T03:58:17.256Z,0.00
2023-03-10T03:59:17.434Z,0.00
2023-03-10T04:00:17.626Z,0.00
2023-03-10T04:01:17.800Z,0.00
2023-03-10T04:02:18.008Z,0.00
2023-03-10T04:03:18.161Z,0.00
2023-03-10T04:04:18.322Z,0.00
2023-03-10T04:05:18.468Z,0.00
2023-03-10T04:06:18.652Z,0.00
2023-03-10T04:07:18.792Z,0.00
2023-03-10T04:08:18.963Z,0.00
2023-03-10T04:09:19.124Z,0.00
2023-03-10T04:10:19.317Z,0.00
2023-03-10T04:11:19.509Z,0.00
2023-03-10T04:12:19.673Z,0.00
2023-03-10T04:13:19.847Z,0.00
2023-03-10T04:14:20.033Z,0.00
2023-03-10T04:15:20.212Z,0.00
2023-03-10T04:16:20.454Z,0.00
2023-03-10T04:17:20.552Z,0.00
2023-03-10T04:18:20.732Z,0.00
2023-03-10T04:19:20.924Z,0.00
2023-03-10T04:20:21.101Z,0.00
2023-03-10T04:21:21.281Z,0.00
2023-03-10T04:22:21.461Z,0.00
2023-03-10T04:23:21.623Z,0.00
2023-03-10T04:24:21.810Z,0.00
2023-03-10T04:25:22.032Z,0.00
2023-03-10T04:26:22.198Z,0.00
2023-03-10T04:27:22.361Z,0.00
2023-03-10T04:28:22.544Z,0.00
2023-03-10T04:29:22.723Z,0.00
2023-03-10T04:30:22.903Z,0.00
2023-03-10T04:31:23.129Z,0.00
2023-03-10T04:32:23.265Z,0.00
2023-03-10T04:33:23.415Z,0.00
2023-03-10T04:34:23.604Z,0.00
2023-03-10T04:35:23.755Z,0.00
2023-03-10T04:36:23.919Z,0.00
2023-03-10T04:37:24.089Z,0.00
2023-03-10T04:38:24.283Z,0.00
2023-03-10T04:39:24.462Z,0.00
2023-03-10T04:40:24.630Z,0.00
2023-03-10T04:41:24.814Z,0.00
2023-03-10T04:42:24.998Z,0.00
2023-03-10T04:43:25.158Z,0.00
2023-03-10T04:44:30.820Z,0.00
2023-03-10T04:45:26.533Z,0.00
2023-03-10T04:46:25.741Z,0.00
2023-03-10T04:47:25.869Z,0.00
2023-03-10T04:48:26.037Z,0.00
2023-03-10T04:49:26.251Z,0.00
2023-03-10T04:50:26.403Z,0.00
2023-03-10T04:51:26.571Z,0.00
2023-03-10T04:52:26.758Z,0.00
2023-03-10T04:53:26.921Z,0.00
2023-03-10T04:54:27.109Z,0.00
2023-03-10T04:55:27.295Z,0.00
2023-03-10T04:56:27.462Z,0.00
2023-03-10T04:57:27.640Z,0.00
2023-03-10T04:58:27.843Z,0.00
2023-03-10T04:59:27.995Z,0.00
2023-03-10T05:00:28.265Z,0.00
2023-03-10T05:01:28.420Z,0.00
2023-03-10T05:02:28.529Z,0.00
2023-03-10T05:03:28.699Z,0.00
2023-03-10T05:04:28.940Z,0.00
2023-03-10T05:05:29.051Z,0.00
2023-03-10T05:06:29.313Z,0.00
2023-03-10T05:07:29.410Z,0.00
2023-03-10T05:08:29.590Z,0.00
2023-03-10T05:09:29.788Z,0.00
2023-03-10T05:10:29.938Z,0.00
2023-03-10T05:11:30.114Z,0.00
2023-03-10T05:12:30.294Z,0.00
2023-03-10T05:13:31.870Z,0.00
2023-03-10T05:14:30.655Z,4.00
2023-03-10T05:15:30.825Z,4.00
2023-03-10T05:16:31.095Z,4.00
2023-03-10T05:17:31.178Z,4.00
2023-03-10T05:18:31.363Z,4.00
2023-03-10T05:19:31.554Z,4.00
2023-03-10T05:20:31.707Z,8.00
2023-03-10T05:21:31.873Z,4.00
2023-03-10T05:22:32.063Z,8.00
2023-03-10T05:23:32.239Z,8.00
2023-03-10T05:24:32.442Z,8.00
2023-03-10T05:25:32.612Z,12.00
2023-03-10T05:26:34.787Z,12.00
2023-03-10T05:27:32.932Z,16.00
2023-03-10T05:28:33.105Z,20.00
2023-03-10T05:29:33.272Z,24.00
2023-03-10T05:30:33.440Z,20.00
2023-03-10T05:31:33.639Z,24.00
2023-03-10T05:32:33.819Z,32.00
2023-03-10T05:33:33.974Z,36.00
2023-03-10T05:34:34.136Z,28.00
2023-03-10T05:35:34.361Z,32.00
2023-03-10T05:36:34.483Z,40.00
2023-03-10T05:37:34.644Z,32.00
2023-03-10T05:38:34.843Z,40.00
2023-03-10T05:39:35.028Z,40.00
2023-03-10T05:40:35.191Z,48.00
2023-03-10T05:41:35.351Z,60.00
2023-03-10T05:42:35.540Z,60.00
2023-03-10T05:43:35.702Z,64.00
2023-03-10T05:44:35.883Z,64.00
2023-03-10T05:45:36.026Z,64.00
2023-03-10T05:46:36.258Z,68.00
2023-03-10T05:47:36.371Z,88.00
2023-03-10T05:48:36.568Z,108.00
2023-03-10T05:49:38.725Z,116.00
2023-03-10T05:50:36.925Z,92.00
2023-03-10T05:51:37.080Z,96.00
2023-03-10T05:52:37.259Z,120.00
2023-03-10T05:53:37.440Z,128.00
2023-03-10T05:54:37.649Z,128.00
2023-03-10T05:55:37.793Z,144.00
2023-03-10T05:56:37.995Z,144.00
2023-03-10T05:57:38.138Z,152.00
2023-03-10T05:58:38.340Z,144.00
2023-03-10T05:59:38.508Z,152.00
2023-03-10T06:00:38.666Z,152.00
2023-03-10T06:01:38.849Z,168.00
2023-03-10T06:02:39.057Z,200.00
2023-03-10T06:03:39.293Z,228.00
2023-03-10T06:04:39.409Z,192.00
2023-03-10T06:05:39.550Z,224.00
2023-03-10T06:06:39.756Z,232.00
2023-03-10T06:07:39.908Z,248.00
2023-03-10T06:08:40.093Z,352.00
2023-03-10T06:09:40.268Z,412.00
2023-03-10T06:10:40.467Z,512.00
2023-03-10T06:11:40.666Z,600.00
2023-03-10T06:12:40.818Z,652.00
2023-03-10T06:13:41.012Z,648.00
2023-03-10T06:14:41.214Z,788.00
2023-03-10T06:15:41.355Z,864.00
2023-03-10T06:16:41.575Z,848.00
2023-03-10T06:17:41.717Z,748.00
2023-03-10T06:18:41.900Z,448.00
2023-03-10T06:19:42.107Z,472.00
2023-03-10T06:20:42.256Z,492.00
2023-03-10T06:21:42.434Z,564.00
2023-03-10T06:22:42.587Z,576.00
2023-03-10T06:23:42.768Z,636.00
2023-03-10T06:24:42.974Z,616.00
2023-03-10T06:25:43.167Z,564.00
2023-03-10T06:26:43.341Z,564.00
2023-03-10T06:27:43.508Z,536.00
2023-03-10T06:28:43.686Z,416.00
2023-03-10T06:29:43.832Z,376.00
2023-03-10T06:30:44.020Z,376.00
2023-03-10T06:31:44.263Z,408.00
2023-03-10T06:32:44.409Z,432.00
2023-03-10T06:33:44.554Z,440.00
2023-03-10T06:34:44.744Z,448.00
2023-03-10T06:35:44.947Z,444.00
2023-03-10T06:36:45.089Z,412.00
2023-03-10T06:37:45.262Z,388.00
2023-03-10T06:38:45.453Z,396.00
2023-03-10T06:39:45.661Z,492.00
2023-03-10T06:40:45.809Z,528.00
2023-03-10T06:41:45.997Z,604.00
2023-03-10T06:42:46.199Z,636.00
2023-03-10T06:43:46.375Z,552.00
2023-03-10T06:44:49.110Z,544.00
2023-03-10T06:45:46.800Z,524.00
2023-03-10T06:46:46.880Z,612.00
2023-03-10T06:47:47.268Z,784.00
2023-03-10T06:48:47.176Z,776.00
2023-03-10T06:49:47.376Z,848.00
2023-03-10T06:50:47.540Z,1036.00
2023-03-10T06:51:47.691Z,896.00
2023-03-10T06:52:47.885Z,836.00
2023-03-10T06:53:48.074Z,968.00
2023-03-10T06:54:48.268Z,992.00
2023-03-10T06:55:48.420Z,1008.00
2023-03-10T06:56:48.578Z,1264.00
2023-03-10T06:57:48.758Z,1360.00
2023-03-10T06:58:48.920Z,1084.00
2023-03-10T06:59:49.110Z,1188.00
2023-03-10T07:00:49.331Z,1292.00
2023-03-10T07:01:49.450Z,1308.00
2023-03-10T07:02:49.608Z,1312.00
2023-03-10T07:03:49.801Z,1276.00
2023-03-10T07:04:50.053Z,1304.00
2023-03-10T07:05:50.136Z,1604.00
2023-03-10T07:06:50.312Z,1760.00
2023-03-10T07:07:50.498Z,1912.00
2023-03-10T07:08:50.664Z,2008.00
2023-03-10T07:09:50.836Z,1972.00
2023-03-10T07:10:51.812Z,1924.00
2023-03-10T07:11:51.194Z,1624.00
2023-03-10T07:12:51.343Z,1572.00
2023-03-10T07:13:51.528Z,2152.00
2023-03-10T07:14:51.713Z,2456.00
2023-03-10T07:15:51.886Z,2624.00
2023-03-10T07:16:52.165Z,2816.00
2023-03-10T07:17:52.235Z,2524.00
2023-03-10T07:18:52.381Z,2172.00
2023-03-10T07:19:52.571Z,1896.00
2023-03-10T07:20:52.746Z,1916.00
2023-03-10T07:21:52.914Z,1908.00
2023-03-10T07:22:53.073Z,2024.00
2023-03-10T07:23:53.252Z,2304.00
2023-03-10T07:24:53.444Z,2472.00
2023-03-10T07:25:53.619Z,2564.00
2023-03-10T07:26:53.781Z,2588.00
2023-03-10T07:27:53.948Z,3064.00
2023-03-10T07:28:54.120Z,3116.00
2023-03-10T07:29:54.299Z,2512.00
2023-03-10T07:30:54.506Z,2872.00
2023-03-10T07:31:54.636Z,2904.00
2023-03-10T07:32:54.879Z,2640.00
2023-03-10T07:33:54.969Z,2552.00
2023-03-10T07:34:55.169Z,2788.00
2023-03-10T07:35:55.339Z,2824.00
2023-03-10T07:36:55.502Z,3060.00
2023-03-10T07:37:55.681Z,2996.00
2023-03-10T07:38:55.837Z,2892.00
2023-03-10T07:39:56.055Z,2760.00
2023-03-10T07:40:56.218Z,2956.00
2023-03-10T07:41:56.407Z,2836.00
2023-03-10T07:42:56.565Z,3508.00
2023-03-10T07:43:56.761Z,3632.00
2023-03-10T07:44:57.016Z,3548.00
2023-03-10T07:45:57.128Z,4120.00
2023-03-10T07:46:57.276Z,4756.00
2023-03-10T07:47:57.458Z,5116.00
2023-03-10T07:48:57.630Z,5360.00
2023-03-10T07:49:57.789Z,5316.00
2023-03-10T07:50:57.921Z,4812.00
2023-03-10T07:51:58.091Z,4008.00
2023-03-10T07:52:58.267Z,4156.00
2023-03-10T07:53:58.429Z,4056.00
2023-03-10T07:54:58.712Z,4720.00
2023-03-10T07:55:58.799Z,5624.00
2023-03-10T07:56:58.978Z,6408.00
2023-03-10T07:57:59.122Z,7020.00
2023-03-10T07:58:59.297Z,7188.00
2023-03-10T07:59:59.540Z,7188.00
2023-03-10T08:00:59.642Z,7264.00
2023-03-10T08:01:59.812Z,7580.00
2023-03-10T08:02:59.986Z,7732.00
2023-03-10T08:04:00.309Z,7728.00
2023-03-10T08:05:00.512Z,7832.00
2023-03-10T08:06:00.514Z,7928.00
2023-03-10T08:07:00.680Z,8176.00
2023-03-10T08:08:00.883Z,7768.00
2023-03-10T08:09:01.038Z,7376.00
2023-03-10T08:10:01.246Z,7300.00
2023-03-10T08:11:01.421Z,7336.00
2023-03-10T08:12:01.588Z,7664.00
2023-03-10T08:13:01.767Z,8088.00
2023-03-10T08:14:02.032Z,8244.00
2023-03-10T08:15:02.146Z,8432.00
2023-03-10T08:16:02.332Z,8100.00
2023-03-10T08:17:02.490Z,8120.00
2023-03-10T08:18:02.612Z,8568.00
2023-03-10T08:19:02.788Z,9008.00
2023-03-10T08:20:02.975Z,8968.00
2023-03-10T08:21:03.104Z,7768.00
2023-03-10T08:22:03.287Z,6984.00
2023-03-10T08:23:03.458Z,7984.00
2023-03-10T08:24:03.635Z,8076.00
2023-03-10T08:25:03.806Z,7420.00
2023-03-10T08:26:03.994Z,6056.00
2023-03-10T08:27:04.167Z,4588.00
2023-03-10T08:28:04.344Z,4452.00
2023-03-10T08:29:04.527Z,4748.00
2023-03-10T08:30:04.718Z,5132.00
2023-03-10T08:31:05.622Z,5572.00
2023-03-10T08:32:05.123Z,6528.00
2023-03-10T08:33:05.337Z,7984.00
2023-03-10T08:34:05.428Z,9428.00
2023-03-10T08:35:05.636Z,9924.00
2023-03-10T08:36:05.835Z,12152.00
2023-03-10T08:37:05.969Z,13288.00
2023-03-10T08:38:06.197Z,13180.00
2023-03-10T08:39:06.331Z,18528.00
2023-03-10T08:40:06.536Z,15868.00
2023-03-10T08:41:06.685Z,14632.00
2023-03-10T08:42:06.869Z,24576.00
2023-03-10T08:43:07.062Z,15600.00
2023-03-10T08:44:07.252Z,15956.00
2023-03-10T08:45:08.722Z,14860.00
2023-03-10T08:46:08.872Z,15188.00
2023-03-10T08:47:07.795Z,18720.00
2023-03-10T08:48:07.879Z,22144.00
2023-03-10T08:49:08.059Z,12920.00
2023-03-10T08:50:08.266Z,22816.00
2023-03-10T08:51:08.399Z,12436.00
2023-03-10T08:52:08.596Z,14428.00
2023-03-10T08:53:08.738Z,14572.00
2023-03-10T08:54:08.930Z,11776.00
2023-03-10T08:55:09.109Z,15232.00
2023-03-10T08:56:09.258Z,14892.00
2023-03-10T08:57:09.408Z,19840.00
2023-03-10T08:58:09.577Z,10896.00
2023-03-10T08:59:09.776Z,6384.00
2023-03-10T09:00:09.928Z,5656.00
2023-03-10T09:01:10.103Z,7324.00
2023-03-10T09:02:10.397Z,5840.00
2023-03-10T09:03:10.489Z,6664.00
2023-03-10T09:04:10.645Z,5052.00
2023-03-10T09:05:10.834Z,4380.00
2023-03-10T09:06:10.991Z,4768.00
2023-03-10T09:07:11.162Z,5028.00
2023-03-10T09:08:11.350Z,6396.00
2023-03-10T09:09:11.511Z,6948.00
2023-03-10T09:10:11.718Z,7668.00
2023-03-10T09:11:11.888Z,8036.00
2023-03-10T09:12:12.060Z,7932.00
2023-03-10T09:13:14.376Z,7284.00
2023-03-10T09:14:12.714Z,10116.00
2023-03-10T09:15:12.581Z,9724.00
2023-03-10T09:16:12.838Z,8740.00
2023-03-10T09:17:12.930Z,8832.00
2023-03-10T09:18:13.165Z,8776.00
2023-03-10T09:19:13.270Z,8400.00
2023-03-10T09:20:13.470Z,7544.00
2023-03-10T09:21:13.628Z,7412.00
2023-03-10T09:22:13.839Z,7584.00
2023-03-10T09:23:14.000Z,6708.00
2023-03-10T09:24:14.172Z,8184.00
2023-03-10T09:25:14.360Z,7996.00
2023-03-10T09:26:14.538Z,7704.00
2023-03-10T09:27:14.709Z,7540.00
2023-03-10T09:28:17.401Z,8256.00
2023-03-10T09:29:15.109Z,8484.00
2023-03-10T09:30:15.246Z,8248.00
2023-03-10T09:31:15.448Z,8396.00
2023-03-10T09:32:15.884Z,10236.00
2023-03-10T09:33:15.783Z,10388.00
2023-03-10T09:34:15.951Z,9800.00
2023-03-10T09:35:16.154Z,11152.00
2023-03-10T09:36:16.442Z,11152.00
2023-03-10T09:37:16.478Z,9904.00
2023-03-10T09:38:16.663Z,9572.00
2023-03-10T09:39:16.797Z,8456.00
2023-03-10T09:40:16.973Z,8280.00
2023-03-10T09:41:17.136Z,8340.00
2023-03-10T09:42:25.538Z,6668.00
2023-03-10T09:43:18.479Z,6364.00
2023-03-10T09:44:17.667Z,6568.00
2023-03-10T09:45:17.841Z,6952.00
2023-03-10T09:46:18.107Z,7932.00
2023-03-10T09:47:20.060Z,7404.00
2023-03-10T09:48:18.369Z,7228.00
2023-03-10T09:49:18.551Z,7616.00
2023-03-10T09:50:18.739Z,7236.00
2023-03-10T09:51:18.892Z,6272.00
2023-03-10T09:52:19.080Z,5848.00
2023-03-10T09:53:19.248Z,6140.00
2023-03-10T09:54:19.401Z,6672.00
2023-03-10T09:55:19.603Z,5244.00
2023-03-10T09:56:19.771Z,7464.00
2023-03-10T09:57:19.930Z,7320.00
2023-03-10T09:58:20.120Z,6812.00
2023-03-10T09:59:20.313Z,5704.00
2023-03-10T10:00:20.493Z,6100.00
2023-03-10T10:01:20.652Z,6744.00
2023-03-10T10:02:20.813Z,6752.00
2023-03-10T10:03:21.055Z,3992.00
2023-03-10T10:04:21.364Z,4120.00
2023-03-10T10:05:21.372Z,6740.00
2023-03-10T10:06:21.518Z,7624.00
2023-03-10T10:07:21.702Z,6892.00
2023-03-10T10:08:21.892Z,7028.00
2023-03-10T10:09:22.061Z,8388.00
2023-03-10T10:10:22.240Z,8212.00
2023-03-10T10:11:22.407Z,5528.00
2023-03-10T10:12:22.569Z,5072.00
2023-03-10T10:13:22.750Z,4524.00
2023-03-10T10:14:31.466Z,4136.00
2023-03-10T10:15:24.118Z,4056.00
2023-03-10T10:16:33.961Z,3716.00
2023-03-10T10:17:24.529Z,4456.00
2023-03-10T10:18:25.728Z,5384.00
2023-03-10T10:19:23.828Z,5292.00
2023-03-10T10:20:24.012Z,5676.00
2023-03-10T10:21:28.109Z,5696.00
2023-03-10T10:22:25.324Z,6220.00
2023-03-10T10:23:24.467Z,5760.00
2023-03-10T10:24:24.662Z,5652.00
2023-03-10T10:25:24.849Z,8292.00
2023-03-10T10:26:25.010Z,7864.00
2023-03-10T10:27:25.582Z,8404.00
2023-03-10T10:28:25.350Z,7472.00
2023-03-10T10:29:25.522Z,6888.00
2023-03-10T10:30:27.039Z,6616.00
2023-03-10T10:31:25.987Z,6348.00
2023-03-10T10:32:26.081Z,4704.00
2023-03-10T10:33:26.204Z,4632.00
2023-03-10T10:34:26.378Z,4908.00
2023-03-10T10:35:26.548Z,5180.00
2023-03-10T10:36:26.780Z,6352.00
2023-03-10T10:37:26.895Z,6828.00
2023-03-10T10:38:27.077Z,6480.00
2023-03-10T10:39:28.227Z,6920.00
2023-03-10T10:40:27.441Z,6616.00
2023-03-10T10:41:27.641Z,4644.00
2023-03-10T10:42:27.839Z,5172.00
2023-03-10T10:43:27.986Z,4852.00
2023-03-10T10:44:28.150Z,4128.00
2023-03-10T10:45:28.356Z,5604.00
2023-03-10T10:46:28.549Z,4236.00
2023-03-10T10:47:28.681Z,4068.00
2023-03-10T10:48:28.851Z,4376.00
2023-03-10T10:49:29.037Z,4032.00
2023-03-10T10:50:29.229Z,6516.00
2023-03-10T10:51:29.467Z,8056.00
2023-03-10T10:52:29.543Z,6120.00
2023-03-10T10:53:29.712Z,5912.00
2023-03-10T10:54:29.876Z,4784.00
2023-03-10T10:55:30.065Z,4112.00
2023-03-10T10:56:30.392Z,3352.00
2023-03-10T10:57:30.395Z,2996.00
2023-03-10T10:58:30.616Z,2984.00
2023-03-10T10:59:30.752Z,3996.00
2023-03-10T11:00:30.971Z,4308.00
2023-03-10T11:01:31.122Z,4368.00
2023-03-10T11:02:31.308Z,3444.00
2023-03-10T11:03:33.274Z,2860.00
2023-03-10T11:04:31.624Z,3540.00
2023-03-10T11:05:31.772Z,4588.00
2023-03-10T11:06:31.961Z,4716.00
2023-03-10T11:07:32.228Z,6528.00
2023-03-10T11:08:32.296Z,7216.00
2023-03-10T11:09:32.465Z,5532.00
2023-03-10T11:10:32.639Z,6056.00
2023-03-10T11:11:32.842Z,6420.00
2023-03-10T11:12:32.972Z,6584.00
2023-03-10T11:13:33.173Z,5468.00
2023-03-10T11:14:33.364Z,4312.00
2023-03-10T11:15:33.537Z,3908.00
2023-03-10T11:16:33.724Z,4388.00
2023-03-10T11:17:33.899Z,4328.00
2023-03-10T11:18:34.100Z,6196.00
2023-03-10T11:19:34.253Z,6876.00
2023-03-10T11:20:34.423Z,6812.00
2023-03-10T11:21:34.624Z,5916.00
2023-03-10T11:22:34.784Z,5544.00
2023-03-10T11:23:34.960Z,4296.00
2023-03-10T11:24:35.125Z,3496.00
2023-03-10T11:25:35.283Z,3424.00
2023-03-10T11:26:35.474Z,3692.00
2023-03-10T11:27:35.624Z,4224.00
2023-03-10T11:28:35.820Z,4484.00
2023-03-10T11:29:36.093Z,5084.00
2023-03-10T11:30:36.167Z,5020.00
2023-03-10T11:31:36.472Z,4408.00
2023-03-10T11:32:36.574Z,4696.00
2023-03-10T11:33:36.734Z,4740.00
2023-03-10T11:34:36.893Z,6144.00
2023-03-10T11:35:37.255Z,6288.00
2023-03-10T11:36:49.617Z,6028.00
2023-03-10T11:37:38.445Z,5972.00
2023-03-10T11:38:37.638Z,4712.00
2023-03-10T11:39:37.789Z,4728.00
2023-03-10T11:40:38.013Z,5468.00
2023-03-10T11:41:38.181Z,6136.00
2023-03-10T11:42:38.355Z,5388.00
2023-03-10T11:43:38.514Z,5708.00
2023-03-10T11:44:38.702Z,4800.00
2023-03-10T11:45:38.890Z,4368.00
2023-03-10T11:46:39.219Z,3280.00
2023-03-10T11:47:41.819Z,3880.00
2023-03-10T11:48:39.385Z,4480.00
2023-03-10T11:49:39.551Z,3888.00
2023-03-10T11:50:39.741Z,5492.00
2023-03-10T11:51:39.939Z,7036.00
2023-03-10T11:52:40.084Z,8392.00
2023-03-10T11:53:40.253Z,8976.00
2023-03-10T11:54:40.437Z,7960.00
2023-03-10T11:55:40.615Z,6748.00
2023-03-10T11:56:40.794Z,5708.00
2023-03-10T11:57:40.950Z,5128.00
2023-03-10T11:58:41.119Z,6008.00
2023-03-10T11:59:41.302Z,7496.00
2023-03-10T12:00:41.572Z,8424.00
2023-03-10T12:01:41.695Z,8816.00
2023-03-10T12:02:41.864Z,7680.00
2023-03-10T12:03:42.140Z,8432.00
2023-03-10T12:04:42.233Z,8668.00
2023-03-10T12:05:42.419Z,6696.00
2023-03-10T12:06:42.595Z,5996.00
2023-03-10T12:07:42.776Z,5560.00
2023-03-10T12:08:42.916Z,5460.00
2023-03-10T12:09:43.086Z,5580.00
2023-03-10T12:10:43.240Z,6596.00
2023-03-10T12:11:43.415Z,7356.00
2023-03-10T12:12:43.582Z,7260.00
2023-03-10T12:13:43.785Z,6200.00
2023-03-10T12:14:43.988Z,6280.00
2023-03-10T12:15:44.166Z,5620.00
2023-03-10T12:16:44.343Z,4816.00
2023-03-10T12:17:44.529Z,4272.00
2023-03-10T12:18:44.725Z,3896.00
2023-03-10T12:19:44.853Z,5284.00
2023-03-10T12:20:45.063Z,7796.00
2023-03-10T12:21:45.255Z,11208.00
2023-03-10T12:22:45.404Z,11216.00
2023-03-10T12:23:45.614Z,10556.00
2023-03-10T12:24:45.756Z,10136.00
2023-03-10T12:25:45.964Z,9276.00
2023-03-10T12:26:46.108Z,7996.00
2023-03-10T12:27:46.274Z,6892.00
2023-03-10T12:28:46.468Z,6520.00
2023-03-10T12:29:46.641Z,5304.00
2023-03-10T12:30:46.875Z,5900.00
2023-03-10T12:31:47.052Z,7300.00
2023-03-10T12:32:47.511Z,7896.00
2023-03-10T12:33:47.378Z,7804.00
2023-03-10T12:34:47.500Z,8432.00
2023-03-10T12:35:47.724Z,8524.00
2023-03-10T12:36:47.863Z,8024.00
2023-03-10T12:37:48.013Z,8308.00
2023-03-10T12:38:48.172Z,8804.00
2023-03-10T12:39:48.347Z,8540.00